Wednesday, September 19, 2018, 3:23 PM EDT
Back to Local

KNUI, Knui Webster Field Annex

Location: Saint Inigoes, MD, United States Lat: 38.15
Local Time: 3:23 PM EDT (19:23 GMT) Lon: -76.417
Time Zone: US/Eastern Elev: 19 ft

Show me the last for .
Show Decoded

2018-09-19 14:53 METAR KNUI 191853Z AUTO VRB05KT 10SM FEW031 29/21 A2991 RMK AO2 SLP128 T02890206
                 =
2018-09-19 13:53 METAR KNUI 191753Z AUTO VRB05KT 10SM BKN030 BKN037 28/21 A2992 RMK AO2 SLP130
                 T02780211 10289 20228 58001 =
2018-09-19 12:53 METAR KNUI 191653Z AUTO VRB04KT 10SM CLR 28/21 A2992 RMK AO2 SLP132 T02830211 =
2018-09-19 11:53 METAR KNUI 191553Z AUTO VRB03KT 10SM CLR 27/21 A2992 RMK AO2 SLP130 T02720206 =
2018-09-19 10:53 METAR KNUI 191453Z AUTO VRB04G15KT 10SM CLR 26/20 A2992 RMK AO2 SLP131 T02610200
                 52017 =
2018-09-19 09:53 METAR KNUI 191353Z AUTO VRB04KT 10SM CLR 26/21 A2990 RMK AO2 SLP124 T02560206 =
2018-09-19 08:53 METAR KNUI 191253Z AUTO VRB04KT 10SM CLR 24/21 A2989 RMK AO2 SLP120 T02390206 =
2018-09-19 07:53 METAR KNUI 191153Z AUTO VRB05KT 10SM CLR 22/20 A2987 RMK AO2 SLP113 70015
                 T02220200 10222 20211 51012 =
2018-09-19 06:53 METAR KNUI 191053Z AUTO VRB04KT 10SM CLR 22/19 A2986 RMK AO2 SLP111 T02170194 =
2018-09-19 05:53 METAR KNUI 190953Z AUTO VRB03KT 10SM CLR 22/20 A2984 RMK AO2 SLP105 T02170200 =
2018-09-19 04:53 METAR KNUI 190853Z AUTO 33003KT 10SM CLR 22/20 A2983 RMK AO2 SLP102 T02170200
                 51005 =
2018-09-19 03:53 METAR KNUI 190753Z AUTO 00000KT 10SM CLR 21/19 A2983 RMK AO2 SLP100 T02110194 =
2018-09-19 02:53 METAR KNUI 190653Z AUTO 00000KT 10SM CLR 22/20 A2983 RMK AO2 SLP099 T02170200 =
2018-09-19 01:53 METAR KNUI 190553Z AUTO 31004KT 10SM CLR 22/20 A2982 RMK AO2 SLP097 T02220200
                 10233 20217 53002 =
2018-09-19 00:53 METAR KNUI 190453Z AUTO 00000KT 10SM CLR 22/21 A2981 RMK AO2 SLP094 T02220206
                 402890222 =
2018-09-18 23:53 METAR KNUI 190353Z AUTO VRB03KT 10SM CLR 23/21 A2981 RMK AO2 SLP095 T02280206 =
2018-09-18 22:53 METAR KNUI 190253Z AUTO VRB03KT 10SM CLR 23/21 A2982 RMK AO2 SLP095 T02330211
                 51010 =
2018-09-18 21:53 METAR KNUI 190153Z AUTO 00000KT 10SM BKN110 23/22 A2981 RMK AO2 SLP093 T02330217
                 =
2018-09-18 20:53 METAR KNUI 190053Z AUTO 32003KT 10SM OVC100 23/22 A2980 RMK AO2 SLP091 T02330217
                 =
2018-09-18 19:53 METAR KNUI 182353Z AUTO 32003KT 10SM OVC085 23/22 A2979 RMK AO2 RAB14E26 SLP085
                 P0000 60014 T02330217 10283 20233 51009 =
2018-09-18 18:53 METAR KNUI 182253Z AUTO VRB06KT 10SM FEW007 BKN038 OVC047 23/22 A2978 RMK AO2
                 RAE45 SLP083 P0004 T02330222 =
2018-09-18 18:51 METAR KNUI 182251Z AUTO VRB04KT 10SM SCT007 SCT015 OVC038 23/22 A2978 RMK AO2
                 RAE45 P0004 =
2018-09-18 18:22 METAR KNUI 182222Z AUTO VRB04KT 3SM RA BR BKN007 BKN013 OVC022 24/23 A2977 RMK
                 AO2 CIG 005V010 P0003 T02390228 =
2018-09-18 18:13 METAR KNUI 182213Z AUTO VRB03KT 2 1/2SM RA BR SCT007 BKN014 OVC020 24/23 A2976
                 RMK AO2 P0002 T02390228 =
2018-09-18 18:04 METAR KNUI 182204Z AUTO VRB05KT 4SM RA BR BKN007 BKN012 OVC018 24/23 A2976 RMK
                 AO2 P0001 T02390228 =
2018-09-18 17:53 METAR KNUI 182153Z AUTO 31007KT 2SM RA BR BKN007 BKN017 OVC022 24/23 A2976 RMK
                 AO2 SLP076 P0010 T02390228 =
2018-09-18 17:41 METAR KNUI 182141Z AUTO 00000KT 2SM -RA BR SCT007 BKN010 OVC022 24/23 A2975 RMK
                 AO2 P0008 T02390233 =
2018-09-18 17:39 METAR KNUI 182139Z AUTO 00000KT 1 1/2SM -RA BR BKN007 BKN013 OVC020 24/23 A2975
                 =
2018-09-18 17:29 METAR KNUI 182129Z AUTO VRB04KT 3/4SM +RA BR FEW006 BKN019 OVC090 24/23 A2975
                 RMK AO2 P0006 T02390228 =
2018-09-18 17:21 METAR KNUI 182121Z AUTO VRB03KT 2 1/2SM -RA BR FEW007 BKN016 OVC090 24/23 A2975
                 =
2018-09-18 16:53 METAR KNUI 182053Z AUTO 32005KT 6SM -RA BR FEW070 OVC100 24/23 A2974 RMK AO2
                 RAB27 SLP071 P0000 60000 T02440228 55001 =
2018-09-18 15:53 METAR KNUI 181953Z AUTO 27006KT 10SM SCT030 BKN038 OVC110 27/23 A2973 RMK AO2
                 SLP067 T02670233 =

Support USWX by starting your Amazon purchase here.